Time;durP1;ratioP1;P1;durP2;ratioP2;P2;SDS_P1;SDS_P2;PMS_P1;PMS_P2;Temp;Humidity;BMP_temperature;BMP_pressure;BME280_temperature;BME280_humidity;BME280_pressure;Samples;Min_cycle;Max_cycle;Signal;HPM_P1;HPM_P2
2022/01/16 00:01:20;;;;;;;57.90;26.63;;;3.30;99.90;;;;;;4850612;29;20053;-68
2022/01/16 00:06:21;;;;;;;52.85;23.67;;;3.20;99.90;;;;;;4829813;29;20070;-68
2022/01/16 00:08:47;;;;;;;49.00;23.33;;;3.10;99.90;;;;;;4834702;29;20064;-69
2022/01/16 00:11:13;;;;;;;51.43;24.40;;;3.10;99.90;;;;;;4850541;29;20058;-69
2022/01/16 00:13:38;;;;;;;53.17;24.45;;;3.10;99.90;;;;;;4834013;29;20061;-68
2022/01/16 00:16:04;;;;;;;51.13;24.30;;;3.10;99.90;;;;;;4849739;29;20075;-68
2022/01/16 00:18:41;;;;;;;60.37;26.03;;;3.10;99.90;;;;;;4848292;29;20126;-69
2022/01/16 00:21:07;;;;;;;53.78;23.92;;;3.00;99.90;;;;;;4833371;29;20303;-69
2022/01/16 00:23:32;;;;;;;51.72;24.30;;;3.00;99.90;;;;;;4849888;29;20080;-69
2022/01/16 00:25:58;;;;;;;53.40;23.97;;;3.00;99.90;;;;;;4850297;29;20125;-69
2022/01/16 00:28:24;;;;;;;58.20;25.27;;;2.90;99.90;;;;;;4849762;29;20086;-68
2022/01/16 00:30:51;;;;;;;;;;;2.90;99.90;;;;;;4850464;29;20061;-69
2022/01/16 00:33:17;;;;;;;56.83;24.80;;;2.80;99.90;;;;;;4850344;29;19925;-69
2022/01/16 00:35:43;;;;;;;53.75;24.98;;;2.90;99.90;;;;;;4833635;29;20046;-69
2022/01/16 00:38:09;;;;;;;54.90;25.02;;;2.90;99.90;;;;;;4849600;29;20101;-69
2022/01/16 00:40:35;;;;;;;48.83;23.98;;;2.90;99.90;;;;;;4833989;29;20070;-68
2022/01/16 00:43:01;;;;;;;50.53;24.23;;;2.90;99.90;;;;;;4850158;29;20054;-68
2022/01/16 00:45:34;;;;;;;51.38;24.17;;;2.80;99.90;;;;;;4850293;29;20166;-69
2022/01/16 00:48:03;;;;;;;50.53;24.95;;;2.90;99.90;;;;;;4849827;29;20097;-69
2022/01/16 00:50:30;;;;;;;47.67;24.92;;;2.90;99.90;;;;;;4850436;29;20110;-69
2022/01/16 00:52:56;;;;;;;50.38;24.73;;;2.90;99.90;;;;;;4851728;29;20069;-68
2022/01/16 00:55:22;;;;;;;45.72;24.00;;;2.90;99.90;;;;;;4853735;29;20058;-69
2022/01/16 00:57:48;;;;;;;50.80;24.75;;;2.80;99.90;;;;;;4816774;29;20064;-68
2022/01/16 01:00:14;;;;;;;52.83;24.45;;;2.90;99.90;;;;;;4849019;29;20069;-68
2022/01/16 01:02:40;;;;;;;43.42;24.08;;;2.80;99.90;;;;;;4853088;29;20113;-68
2022/01/16 01:05:07;;;;;;;50.47;25.23;;;2.80;99.90;;;;;;4836490;29;20121;-69
2022/01/16 01:07:33;;;;;;;49.53;24.80;;;2.70;99.90;;;;;;4820581;29;20307;-68
2022/01/16 01:09:59;;;;;;;52.70;25.30;;;2.70;99.90;;;;;;4836291;29;20054;-68
2022/01/16 01:12:29;;;;;;;51.17;24.70;;;2.70;99.90;;;;;;4853447;29;20459;-68
2022/01/16 01:15:09;;;;;;;64.90;27.40;;;2.70;99.90;;;;;;4836587;29;20104;-69
2022/01/16 01:17:44;;;;;;;53.95;25.58;;;2.70;99.90;;;;;;4852408;29;20046;-68
2022/01/16 01:20:12;;;;;;;63.45;28.20;;;2.70;99.90;;;;;;4838792;29;20089;-68
2022/01/16 01:22:37;;;;;;;58.97;28.45;;;2.60;99.90;;;;;;4852896;29;20058;-69
2022/01/16 01:25:03;;;;;;;59.97;27.97;;;2.60;99.90;;;;;;4852978;29;20057;-68
2022/01/16 01:27:33;;;;;;;63.28;28.80;;;2.60;99.90;;;;;;4852693;29;20053;-68
2022/01/16 01:30:05;;;;;;;66.18;29.40;;;2.60;99.90;;;;;;4852584;29;20083;-68
2022/01/16 01:32:32;;;;;;;62.05;29.98;;;2.70;99.90;;;;;;4852503;29;20100;-68
2022/01/16 01:34:58;;;;;;;65.35;30.00;;;2.70;99.90;;;;;;4852745;29;20053;-68
2022/01/16 01:37:23;;;;;;;64.93;29.73;;;2.70;99.90;;;;;;4852848;29;20046;-68
2022/01/16 01:39:49;;;;;;;65.30;30.95;;;2.70;99.90;;;;;;4852489;29;20069;-69
2022/01/16 01:42:16;;;;;;;69.77;31.40;;;2.70;99.90;;;;;;4852644;29;20110;-68
2022/01/16 01:52:56;;;;;;;67.13;31.17;;;2.60;99.90;;;;;;4843099;29;20046;-68
2022/01/16 01:55:23;;;;;;;66.53;31.50;;;2.60;99.90;;;;;;4852101;29;20071;-68
2022/01/16 01:57:49;;;;;;;70.03;32.00;;;2.60;99.90;;;;;;4852317;29;20142;-68
2022/01/16 02:00:19;;;;;;;68.85;32.75;;;2.60;99.90;;;;;;4852083;29;20110;-68
2022/01/16 02:03:14;;;;;;;68.55;32.17;;;2.60;99.90;;;;;;4851966;29;20082;-68
2022/01/16 02:05:33;;;;;;;67.75;31.85;;;2.70;99.90;;;;;;4833837;29;20054;-68
2022/01/16 02:07:59;;;;;;;69.75;32.17;;;2.70;99.90;;;;;;4833482;29;20145;-68
2022/01/16 02:10:25;;;;;;;72.40;32.22;;;2.70;99.90;;;;;;4834994;29;20101;-68
2022/01/16 02:12:58;;;;;;;70.38;32.47;;;2.70;99.90;;;;;;4852265;29;20124;-68
2022/01/16 02:15:49;;;;;;;;;;;;;;;;;;;;;
2022/01/16 02:31:45;;;;;;;72.03;33.47;;;2.80;99.90;;;;;;4851295;29;20125;-68
2022/01/16 02:34:32;;;;;;;72.78;33.05;;;2.80;99.90;;;;;;4851843;29;20118;-68
2022/01/16 02:37:02;;;;;;;;;;;2.80;99.90;;;;;;4851463;29;20437;-68
2022/01/16 02:39:31;;;;;;;78.47;32.45;;;2.80;99.90;;;;;;4851051;29;19939;-68
2022/01/16 02:41:59;;;;;;;71.20;32.50;;;2.80;99.90;;;;;;4834735;29;20146;-68
2022/01/16 02:46:55;;;;;;;81.65;33.40;;;2.80;99.90;;;;;;4834253;29;20202;-68
2022/01/16 02:49:23;;;;;;;77.63;34.88;;;2.80;99.90;;;;;;4839313;29;20075;-68
2022/01/16 02:51:51;;;;;;;87.60;34.22;;;2.80;99.90;;;;;;4834872;29;20491;-68
2022/01/16 02:54:17;;;;;;;91.93;34.10;;;2.80;99.90;;;;;;4834795;29;20121;-68
2022/01/16 02:56:45;;;;;;;89.82;34.97;;;2.80;99.90;;;;;;4833968;29;20096;-68
2022/01/16 02:59:11;;;;;;;81.25;32.53;;;2.70;99.90;;;;;;4834661;29;20061;-68
2022/01/16 03:01:38;;;;;;;80.95;33.13;;;2.70;99.90;;;;;;4851482;29;20159;-68
2022/01/16 03:04:04;;;;;;;90.70;33.22;;;2.70;99.90;;;;;;4834771;29;20068;-68
2022/01/16 03:06:29;;;;;;;80.43;33.80;;;2.70;99.90;;;;;;4846498;29;20156;-68
2022/01/16 03:08:55;;;;;;;86.67;33.20;;;2.70;99.90;;;;;;4834052;29;20106;-68
2022/01/16 03:11:34;;;;;;;84.43;31.02;;;2.70;99.90;;;;;;4834763;29;20045;-68
2022/01/16 03:14:04;;;;;;;86.20;33.55;;;2.70;99.90;;;;;;4834800;29;20080;-68
2022/01/16 03:16:30;;;;;;;79.30;31.75;;;2.70;99.90;;;;;;4850662;29;20042;-68
2022/01/16 03:21:57;;;;;;;84.38;33.90;;;2.60;99.90;;;;;;4834464;29;20077;-68
2022/01/16 03:24:26;;;;;;;88.32;32.00;;;2.60;99.90;;;;;;4818861;29;20087;-68
2022/01/16 03:27:06;;;;;;;80.20;31.75;;;2.60;99.90;;;;;;4834427;29;20066;-68
2022/01/16 03:29:33;;;;;;;79.03;31.02;;;2.60;99.90;;;;;;4833744;29;20050;-68
2022/01/16 03:32:00;;;;;;;90.38;33.72;;;2.60;99.90;;;;;;4851021;29;20132;-68
2022/01/16 03:34:26;;;;;;;94.70;36.55;;;2.60;99.90;;;;;;4850576;29;20053;-68
2022/01/16 03:36:52;;;;;;;85.30;34.80;;;2.60;99.90;;;;;;4851075;29;20493;-68
2022/01/16 03:39:18;;;;;;;86.63;33.13;;;2.60;99.90;;;;;;4833389;29;20314;-68
2022/01/16 03:41:44;;;;;;;88.63;32.60;;;2.70;99.90;;;;;;4819172;29;20052;-68
2022/01/16 03:44:10;;;;;;;98.47;35.95;;;2.70;99.90;;;;;;4850656;29;20295;-68
2022/01/16 03:46:38;;;;;;;91.50;35.58;;;2.70;99.90;;;;;;4834451;29;20057;-68
2022/01/16 03:49:06;;;;;;;91.90;33.45;;;2.70;99.90;;;;;;4828838;29;20070;-68
2022/01/16 03:51:33;;;;;;;89.47;33.85;;;2.70;99.90;;;;;;4849172;29;20050;-68
2022/01/16 03:53:59;;;;;;;;;;;2.70;99.90;;;;;;4833634;29;20483;-68
2022/01/16 03:56:25;;;;;;;89.20;34.80;;;2.70;99.90;;;;;;4834117;29;19950;-68
2022/01/16 03:58:51;;;;;;;102.20;35.78;;;2.70;99.90;;;;;;4833495;29;20054;-69
2022/01/16 04:01:17;;;;;;;98.18;35.47;;;2.80;99.90;;;;;;4833786;29;20182;-68
2022/01/16 04:03:43;;;;;;;97.85;36.60;;;2.80;99.90;;;;;;4833934;29;20053;-68
2022/01/16 04:06:08;;;;;;;107.57;38.27;;;2.80;99.90;;;;;;4847147;29;20485;-68
2022/01/16 04:08:34;;;;;;;98.77;36.77;;;2.70;99.90;;;;;;4835736;29;20081;-68
2022/01/16 04:11:00;;;;;;;95.70;35.63;;;2.80;99.90;;;;;;4848819;29;20057;-68
2022/01/16 04:13:26;;;;;;;102.55;36.88;;;2.80;99.90;;;;;;4830389;29;20525;-68
2022/01/16 04:15:52;;;;;;;105.80;37.75;;;2.80;99.90;;;;;;4832528;29;20046;-68
2022/01/16 04:18:17;;;;;;;104.80;37.83;;;2.80;99.90;;;;;;4833836;29;20126;-68
2022/01/16 04:20:43;;;;;;;105.70;37.40;;;2.90;99.90;;;;;;4833767;29;20050;-69
2022/01/16 04:23:10;;;;;;;102.80;38.27;;;2.80;99.90;;;;;;4848529;29;20069;-68
2022/01/16 04:25:37;;;;;;;109.63;38.30;;;2.90;99.90;;;;;;4833591;29;20217;-68
2022/01/16 04:28:03;;;;;;;120.13;39.35;;;2.90;99.90;;;;;;4835732;29;20077;-68
2022/01/16 04:30:30;;;;;;;;;;;2.90;99.90;;;;;;4853736;29;20097;-68
2022/01/16 04:33:02;;;;;;;102.03;35.92;;;2.90;99.90;;;;;;4853338;29;19947;-68
2022/01/16 04:35:29;;;;;;;106.20;36.53;;;2.90;99.90;;;;;;4853480;29;20058;-68
2022/01/16 04:37:54;;;;;;;110.97;37.83;;;2.90;99.90;;;;;;4853844;29;20363;-69
2022/01/16 04:40:20;;;;;;;118.00;37.97;;;2.90;99.90;;;;;;4853667;29;20077;-68
2022/01/16 04:45:30;;;;;;;109.15;37.97;;;3.00;99.90;;;;;;4853489;29;20381;-68
2022/01/16 04:47:56;;;;;;;115.67;38.53;;;3.00;99.90;;;;;;4843680;29;20062;-68
2022/01/16 04:50:24;;;;;;;119.68;38.42;;;3.00;99.90;;;;;;4836428;29;20050;-68
2022/01/16 04:52:50;;;;;;;107.25;38.70;;;3.00;99.90;;;;;;4836465;29;20109;-68
2022/01/16 04:55:21;;;;;;;106.73;38.00;;;3.10;99.90;;;;;;4853533;29;20053;-69
2022/01/16 04:57:47;;;;;;;118.38;38.22;;;3.00;99.90;;;;;;4836811;29;20354;-68
2022/01/16 05:00:14;;;;;;;114.90;38.40;;;3.10;99.90;;;;;;4836539;29;20102;-68
2022/01/16 05:02:41;;;;;;;110.90;39.63;;;3.10;99.90;;;;;;4836952;29;20054;-68
2022/01/16 05:05:07;;;;;;;105.05;38.10;;;3.20;99.90;;;;;;4852682;29;20202;-68
2022/01/16 05:07:33;;;;;;;115.40;38.22;;;3.20;99.90;;;;;;4840443;29;20134;-68
2022/01/16 05:09:59;;;;;;;114.43;38.70;;;3.20;99.90;;;;;;4829973;29;20534;-68
2022/01/16 05:12:31;;;;;;;113.68;39.28;;;3.20;99.90;;;;;;4836557;29;20045;-68
2022/01/16 05:17:41;;;;;;;113.75;38.08;;;3.20;99.90;;;;;;4853096;29;20137;-68
2022/01/16 05:20:07;;;;;;;120.20;40.60;;;3.20;99.90;;;;;;4852965;29;20505;-68
2022/01/16 05:22:33;;;;;;;126.65;41.38;;;3.30;99.90;;;;;;4835928;29;20064;-68
2022/01/16 05:24:58;;;;;;;132.83;42.47;;;3.30;99.90;;;;;;4835575;29;20069;-68
2022/01/16 05:27:24;;;;;;;115.53;40.27;;;3.30;99.90;;;;;;4851632;29;20068;-68
2022/01/16 05:29:50;;;;;;;134.27;41.30;;;3.20;99.90;;;;;;4852595;29;20145;-68
2022/01/16 05:32:16;;;;;;;115.00;40.70;;;3.20;99.90;;;;;;4852912;29;20061;-68
2022/01/16 05:34:42;;;;;;;;;;;3.20;99.90;;;;;;4853266;29;20478;-68
2022/01/16 05:37:08;;;;;;;135.82;41.88;;;3.20;99.90;;;;;;4852725;29;19972;-68
2022/01/16 05:39:34;;;;;;;128.33;40.43;;;3.20;99.90;;;;;;4835003;29;20046;-68
2022/01/16 05:42:01;;;;;;;143.45;42.10;;;3.30;99.90;;;;;;4835999;29;20053;-68
2022/01/16 05:44:26;;;;;;;137.40;41.85;;;3.30;99.90;;;;;;4852511;29;20076;-69
2022/01/16 05:46:52;;;;;;;139.82;42.88;;;3.30;99.90;;;;;;4835803;29;20041;-68
2022/01/16 05:49:18;;;;;;;145.73;41.37;;;3.30;99.90;;;;;;4862604;29;20053;-68
2022/01/16 05:51:44;;;;;;;132.07;41.67;;;3.30;99.90;;;;;;4836074;29;20521;-68
2022/01/16 05:54:09;;;;;;;129.70;39.50;;;3.30;99.90;;;;;;4835331;29;20494;-69
2022/01/16 05:56:35;;;;;;;137.33;41.40;;;3.40;99.90;;;;;;4835677;29;20079;-68
2022/01/16 05:59:00;;;;;;;148.10;42.17;;;3.30;99.90;;;;;;4835448;29;20083;-69
2022/01/16 06:01:26;;;;;;;132.40;42.10;;;3.40;99.90;;;;;;4820301;29;20065;-68
2022/01/16 06:03:52;;;;;;;154.82;43.55;;;3.40;99.90;;;;;;4850737;29;20781;-68
2022/01/16 06:06:18;;;;;;;145.90;42.40;;;3.40;99.90;;;;;;4839816;29;20070;-68
2022/01/16 06:08:43;;;;;;;134.73;41.67;;;3.40;99.90;;;;;;4835361;29;20094;-68
2022/01/16 06:11:09;;;;;;;150.80;43.40;;;3.40;99.90;;;;;;4835345;29;20117;-69
2022/01/16 06:13:35;;;;;;;136.73;41.10;;;3.50;99.90;;;;;;4852388;29;20113;-68
2022/01/16 06:16:02;;;;;;;159.83;44.47;;;3.50;99.90;;;;;;4835078;29;20085;-68
2022/01/16 06:18:28;;;;;;;142.52;43.08;;;3.50;99.90;;;;;;4834798;29;20406;-68
2022/01/16 06:20:53;;;;;;;143.63;44.37;;;3.50;99.90;;;;;;4834857;29;20066;-68
2022/01/16 06:23:19;;;;;;;148.40;44.60;;;3.50;99.90;;;;;;4850044;29;20384;-68
2022/01/16 06:25:45;;;;;;;147.50;44.93;;;3.50;99.90;;;;;;4835323;29;20053;-68
2022/01/16 06:28:11;;;;;;;150.23;42.67;;;3.50;99.90;;;;;;4835203;29;20125;-68
2022/01/16 06:30:36;;;;;;;146.95;43.38;;;3.50;99.90;;;;;;4851306;29;20116;-68
2022/01/16 06:33:05;;;;;;;153.20;43.33;;;3.50;99.90;;;;;;4851862;29;20061;-69
2022/01/16 06:35:31;;;;;;;143.07;44.50;;;3.50;99.90;;;;;;4851248;29;20049;-69
2022/01/16 06:37:56;;;;;;;160.57;44.93;;;3.60;99.90;;;;;;4850025;29;20056;-68
2022/01/16 06:40:22;;;;;;;152.20;44.83;;;3.60;99.90;;;;;;4849781;29;20030;-69
2022/01/16 06:42:48;;;;;;;135.97;42.97;;;3.60;99.90;;;;;;4851427;29;20053;-68
2022/01/16 06:45:13;;;;;;;149.35;44.95;;;3.60;99.90;;;;;;4835070;29;20046;-68
2022/01/16 06:47:39;;;;;;;144.47;42.93;;;3.60;99.90;;;;;;4839469;29;20083;-68
2022/01/16 06:50:07;;;;;;;161.48;44.75;;;3.60;99.90;;;;;;4850768;29;20082;-68
2022/01/16 06:52:33;;;;;;;159.85;45.38;;;3.70;99.90;;;;;;4850048;29;20042;-68
2022/01/16 06:54:59;;;;;;;144.15;45.22;;;3.70;99.90;;;;;;4834708;29;20517;-68
2022/01/16 06:57:24;;;;;;;142.53;44.80;;;3.70;99.90;;;;;;4834318;29;20079;-68
2022/01/16 06:59:50;;;;;;;143.20;44.50;;;3.70;99.90;;;;;;4851592;29;20034;-68
2022/01/16 07:02:17;;;;;;;147.30;48.17;;;3.70;99.90;;;;;;4834062;29;20065;-68
2022/01/16 07:04:46;;;;;;;159.30;48.47;;;3.80;99.90;;;;;;4851479;29;20124;-68
2022/01/16 07:07:12;;;;;;;139.52;45.08;;;3.80;99.90;;;;;;4841421;29;20391;-69
2022/01/16 07:09:39;;;;;;;145.07;47.50;;;3.80;99.90;;;;;;4833096;29;20046;-69
2022/01/16 07:12:05;;;;;;;146.45;46.40;;;3.80;99.90;;;;;;4846291;29;20122;-69
2022/01/16 07:14:31;;;;;;;;;;;3.90;99.90;;;;;;4834857;29;20068;-68
2022/01/16 07:16:57;;;;;;;154.90;46.40;;;3.80;99.90;;;;;;4850789;29;19928;-68
2022/01/16 07:19:22;;;;;;;151.37;47.33;;;3.90;99.90;;;;;;4850999;29;20048;-69
2022/01/16 07:21:48;;;;;;;143.97;47.80;;;3.90;99.90;;;;;;4852107;29;20050;-69
2022/01/16 07:24:15;;;;;;;141.52;46.88;;;4.00;99.90;;;;;;4835511;29;20073;-70
2022/01/16 07:26:45;;;;;;;135.30;46.63;;;4.00;99.90;;;;;;4850634;29;20049;-65
2022/01/16 07:29:11;;;;;;;143.55;49.55;;;4.00;99.90;;;;;;4850715;29;20050;-69
2022/01/16 07:31:39;;;;;;;144.80;48.42;;;4.00;99.90;;;;;;4833375;29;20053;-65
2022/01/16 07:34:06;;;;;;;161.52;49.72;;;4.10;99.90;;;;;;4834130;29;20060;-66
2022/01/16 07:36:32;;;;;;;150.32;47.22;;;4.10;99.90;;;;;;4833965;29;20121;-66
2022/01/16 07:38:58;;;;;;;153.90;50.20;;;4.10;99.90;;;;;;4850742;29;20080;-66
2022/01/16 07:41:23;;;;;;;143.57;47.23;;;4.10;99.90;;;;;;4818263;29;20164;-66
2022/01/16 07:43:49;;;;;;;152.27;49.60;;;4.10;99.90;;;;;;4848980;29;20057;-66
2022/01/16 07:46:17;;;;;;;137.60;48.63;;;4.20;99.90;;;;;;4834179;29;20109;-65
2022/01/16 07:48:43;;;;;;;144.35;47.53;;;4.20;99.90;;;;;;4833487;29;20129;-65
2022/01/16 07:51:08;;;;;;;128.48;48.00;;;4.20;99.90;;;;;;4833832;29;20058;-66
2022/01/16 07:53:34;;;;;;;127.07;47.27;;;4.20;99.90;;;;;;4849336;29;20125;-67
2022/01/16 07:56:00;;;;;;;129.67;46.87;;;4.20;99.90;;;;;;4850016;29;20144;-66
2022/01/16 07:58:26;;;;;;;138.98;47.25;;;4.20;99.90;;;;;;4850837;29;20740;-66
2022/01/16 08:00:51;;;;;;;127.73;47.60;;;4.30;99.90;;;;;;4834886;29;20046;-66
2022/01/16 08:03:17;;;;;;;123.22;45.53;;;4.30;99.90;;;;;;4844734;29;20125;-66
2022/01/16 08:05:43;;;;;;;126.97;46.53;;;4.30;99.90;;;;;;4860411;29;20041;-67
2022/01/16 08:08:09;;;;;;;116.87;46.00;;;4.30;99.90;;;;;;4837263;29;20058;-66
2022/01/16 08:10:35;;;;;;;115.72;44.63;;;4.30;99.90;;;;;;4854634;29;20073;-66
2022/01/16 08:13:00;;;;;;;114.72;46.70;;;4.30;99.90;;;;;;4837412;29;20065;-67
2022/01/16 08:15:26;;;;;;;111.77;45.03;;;4.30;99.90;;;;;;4837683;29;20113;-66
2022/01/16 08:17:52;;;;;;;117.68;43.40;;;4.30;99.90;;;;;;4837020;29;20058;-67
2022/01/16 08:20:18;;;;;;;123.07;43.42;;;4.40;99.90;;;;;;4856811;29;20114;-66
2022/01/16 08:22:45;;;;;;;110.23;44.20;;;4.40;99.90;;;;;;4853536;29;20050;-66
2022/01/16 08:25:11;;;;;;;112.38;44.67;;;4.40;99.90;;;;;;4837432;29;20186;-66
2022/01/16 08:27:37;;;;;;;110.28;44.17;;;4.50;99.90;;;;;;4836891;29;20128;-65
2022/01/16 08:30:05;;;;;;;122.55;45.25;;;4.50;99.90;;;;;;4851595;29;20046;-65
2022/01/16 08:32:30;;;;;;;106.40;43.50;;;4.50;99.90;;;;;;4829167;29;20136;-65
2022/01/16 08:34:56;;;;;;;99.57;42.47;;;4.60;99.90;;;;;;4854255;29;20073;-65
2022/01/16 08:37:22;;;;;;;97.80;42.90;;;4.60;99.90;;;;;;4836807;29;20049;-65
2022/01/16 08:39:47;;;;;;;100.17;42.17;;;4.60;99.90;;;;;;4817207;29;20082;-65
2022/01/16 08:42:13;;;;;;;91.57;40.27;;;4.70;99.90;;;;;;4826085;29;20077;-65
2022/01/16 08:44:39;;;;;;;86.53;39.83;;;4.70;99.90;;;;;;4837245;29;20060;-66
2022/01/16 08:47:06;;;;;;;85.57;39.53;;;4.70;99.90;;;;;;4837041;29;20314;-65
2022/01/16 08:49:33;;;;;;;90.05;39.38;;;4.80;99.90;;;;;;4819225;29;20061;-65
2022/01/16 08:51:58;;;;;;;81.03;38.88;;;4.80;99.90;;;;;;4835301;29;20049;-68
2022/01/16 08:54:24;;;;;;;87.37;40.00;;;4.90;99.90;;;;;;4836428;29;20054;-68
2022/01/16 08:56:50;;;;;;;78.97;38.20;;;4.90;99.90;;;;;;4852126;29;20042;-68
2022/01/16 08:59:15;;;;;;;71.93;38.53;;;4.90;99.90;;;;;;4853354;29;20045;-67
2022/01/16 09:01:41;;;;;;;70.87;36.70;;;5.00;99.90;;;;;;4852165;29;20086;-67
2022/01/16 09:04:06;;;;;;;76.03;37.07;;;5.00;99.90;;;;;;4836440;29;20133;-67
2022/01/16 09:06:32;;;;;;;70.83;34.67;;;5.00;99.90;;;;;;4821580;29;20053;-66
2022/01/16 09:08:58;;;;;;;69.13;34.20;;;5.00;99.90;;;;;;4835474;29;20053;-67
2022/01/16 09:11:25;;;;;;;78.75;36.47;;;5.10;99.90;;;;;;4836371;29;20394;-67
2022/01/16 09:13:53;;;;;;;61.80;33.35;;;5.10;99.90;;;;;;4835151;29;20050;-66
2022/01/16 09:16:19;;;;;;;64.00;33.38;;;5.10;99.90;;;;;;4853453;29;20046;-66
2022/01/16 09:18:47;;;;;;;64.47;32.80;;;5.20;99.90;;;;;;4852610;29;20110;-66
2022/01/16 09:21:15;;;;;;;60.67;32.78;;;5.20;99.90;;;;;;4852828;29;20114;-69
2022/01/16 09:23:40;;;;;;;55.95;32.30;;;5.20;99.90;;;;;;4835871;29;20098;-68
2022/01/16 09:26:06;;;;;;;65.50;33.60;;;5.30;99.90;;;;;;4853315;29;20092;-66
2022/01/16 09:28:33;;;;;;;59.30;32.20;;;5.30;99.90;;;;;;4836053;29;20310;-66
2022/01/16 09:30:58;;;;;;;62.28;33.58;;;5.40;99.90;;;;;;4832642;29;20058;-66
2022/01/16 09:33:24;;;;;;;64.00;32.77;;;5.40;99.90;;;;;;4810938;29;20061;-65
2022/01/16 09:35:49;;;;;;;58.27;31.43;;;5.50;99.90;;;;;;4836195;29;20083;-66
2022/01/16 09:38:17;;;;;;;60.97;33.00;;;5.50;99.90;;;;;;4852345;29;20095;-66
2022/01/16 09:40:45;;;;;;;60.97;32.28;;;5.50;99.90;;;;;;4852445;29;20041;-67
2022/01/16 09:43:11;;;;;;;53.13;30.45;;;5.60;99.90;;;;;;4822468;29;20058;-63
2022/01/16 09:45:37;;;;;;;52.83;32.53;;;5.60;99.90;;;;;;4836088;29;20106;-67
2022/01/16 09:48:03;;;;;;;60.73;30.07;;;5.60;99.90;;;;;;4852595;29;20149;-67
2022/01/16 09:50:29;;;;;;;55.63;31.70;;;5.70;99.90;;;;;;4840847;29;20196;-63
2022/01/16 09:52:55;;;;;;;53.08;30.77;;;5.70;99.90;;;;;;4850727;29;20126;-64
2022/01/16 09:55:21;;;;;;;57.33;31.77;;;5.70;99.90;;;;;;4835524;29;20561;-64
2022/01/16 09:57:48;;;;;;;55.42;31.05;;;5.70;99.90;;;;;;4835018;29;20065;-64
2022/01/16 10:00:16;;;;;;;62.75;33.28;;;5.70;99.90;;;;;;4852315;29;20056;-65
2022/01/16 10:02:42;;;;;;;53.28;30.67;;;5.70;99.90;;;;;;4852144;29;20061;-64
2022/01/16 10:05:37;;;;;;;61.73;32.47;;;5.70;99.90;;;;;;4852143;29;20098;-63
2022/01/16 10:08:06;;;;;;;62.75;30.98;;;5.70;99.90;;;;;;4851881;29;20307;-64
2022/01/16 10:10:34;;;;;;;60.28;31.70;;;5.70;99.90;;;;;;4837260;29;20450;-63
2022/01/16 10:13:17;;;;;;;55.55;32.05;;;5.70;99.90;;;;;;4838338;29;20073;-62
2022/01/16 10:15:57;;;;;;;56.95;31.65;;;5.80;99.90;;;;;;4826407;29;20069;-62
2022/01/16 10:18:39;;;;;;;63.20;31.10;;;5.80;99.90;;;;;;4839587;29;20102;-62
2022/01/16 10:21:08;;;;;;;58.92;32.30;;;5.90;99.90;;;;;;4847706;29;20057;-63
2022/01/16 10:23:41;;;;;;;60.20;32.47;;;5.90;99.90;;;;;;4855251;29;20053;-63
2022/01/16 10:26:19;;;;;;;61.03;31.95;;;5.90;99.90;;;;;;4839892;29;20468;-63
2022/01/16 10:28:45;;;;;;;54.15;28.95;;;5.90;99.90;;;;;;4819635;29;20085;-63
2022/01/16 10:31:22;;;;;;;62.15;30.77;;;6.00;99.90;;;;;;4836022;29;20062;-63
2022/01/16 10:33:53;;;;;;;55.28;30.02;;;6.00;99.90;;;;;;4837489;29;20542;-63
2022/01/16 10:36:37;;;;;;;66.57;31.20;;;6.10;99.90;;;;;;4840333;29;20121;-63
2022/01/16 10:39:09;;;;;;;60.72;29.92;;;6.10;99.90;;;;;;4842282;29;20101;-63
2022/01/16 10:41:34;;;;;;;53.50;30.10;;;6.20;99.90;;;;;;4839723;29;20069;-62
2022/01/16 10:44:03;;;;;;;59.72;28.63;;;6.10;99.90;;;;;;4840142;29;20118;-63
2022/01/16 10:46:31;;;;;;;56.05;29.27;;;6.20;99.90;;;;;;4837275;29;20065;-62
2022/01/16 10:49:17;;;;;;;57.47;28.20;;;6.20;99.90;;;;;;4835139;29;20054;-65
2022/01/16 10:52:09;;;;;;;51.45;28.23;;;6.30;99.90;;;;;;4855432;29;20057;-65
2022/01/16 10:54:40;;;;;;;51.85;27.23;;;6.30;99.90;;;;;;4842542;29;20070;-66
2022/01/16 10:57:27;;;;;;;55.17;28.27;;;6.30;99.90;;;;;;4836236;29;20065;-66
2022/01/16 11:00:17;;;;;;;59.83;28.52;;;6.30;99.90;;;;;;4828858;29;20053;-66
2022/01/16 11:02:45;;;;;;;52.53;25.75;;;6.40;99.90;;;;;;4839410;29;20141;-65
2022/01/16 11:05:14;;;;;;;48.03;26.67;;;6.40;99.90;;;;;;4849941;29;20475;-66
2022/01/16 11:07:42;;;;;;;45.78;25.17;;;6.40;99.90;;;;;;4820650;29;20070;-65
2022/01/16 11:10:21;;;;;;;55.33;26.13;;;6.40;99.90;;;;;;4835078;29;20054;-65
2022/01/16 11:12:52;;;;;;;51.97;25.00;;;6.50;99.90;;;;;;4842917;29;20095;-65
2022/01/16 11:15:19;;;;;;;43.17;23.88;;;6.50;99.90;;;;;;4836305;29;20049;-65
2022/01/16 11:17:45;;;;;;;;;;;6.50;99.90;;;;;;4839933;29;20054;-65
2022/01/16 11:20:11;;;;;;;51.88;23.88;;;6.50;99.90;;;;;;4836413;29;19932;-64
2022/01/16 11:25:36;;;;;;;43.30;23.65;;;6.50;99.90;;;;;;4796865;29;20059;-63
2022/01/16 11:28:05;;;;;;;44.03;22.83;;;6.50;99.90;;;;;;4808169;29;20054;-63
2022/01/16 11:30:33;;;;;;;39.80;22.67;;;6.50;99.90;;;;;;4808134;29;20059;-61
2022/01/16 11:32:59;;;;;;;41.88;22.15;;;6.60;99.90;;;;;;4790977;29;20071;-65
2022/01/16 11:35:27;;;;;;;45.45;22.25;;;6.60;99.90;;;;;;4784455;29;20051;-65
2022/01/16 11:37:55;;;;;;;43.47;21.63;;;6.60;99.90;;;;;;4790727;29;20063;-64
2022/01/16 11:40:27;;;;;;;35.83;20.17;;;6.60;99.90;;;;;;4794768;29;20705;-63
2022/01/16 11:43:32;;;;;;;33.65;19.20;;;6.60;99.90;;;;;;4793941;29;20066;-65
2022/01/16 11:46:10;;;;;;;49.60;21.70;;;6.60;99.90;;;;;;4728229;30;20233;-64
2022/01/16 11:48:44;;;;;;;40.88;20.73;;;6.60;99.90;;;;;;4741690;30;20080;-63
2022/01/16 11:51:32;;;;;;;37.28;18.80;;;6.60;99.90;;;;;;4766947;30;20062;-63
2022/01/16 11:54:32;;;;;;;38.70;17.48;;;6.60;99.90;;;;;;4746364;30;20060;-63
2022/01/16 11:57:04;;;;;;;37.17;17.25;;;6.60;99.90;;;;;;4694387;30;20205;-63
2022/01/16 11:59:40;;;;;;;31.02;16.33;;;6.70;99.90;;;;;;4689807;30;20062;-63
2022/01/16 12:02:08;;;;;;;30.50;15.25;;;6.70;99.90;;;;;;4708242;30;20525;-64
2022/01/16 12:04:34;;;;;;;35.33;16.63;;;6.70;99.90;;;;;;4710729;30;20057;-65
2022/01/16 12:07:31;;;;;;;38.20;17.37;;;6.70;99.90;;;;;;4720550;30;20061;-63
2022/01/16 12:09:57;;;;;;;30.27;15.43;;;6.70;99.90;;;;;;4721474;30;20107;-63
2022/01/16 12:12:23;;;;;;;24.63;15.30;;;6.80;99.90;;;;;;4722534;30;20057;-71
2022/01/16 12:14:59;;;;;;;28.77;14.00;;;6.80;99.90;;;;;;4730787;30;20053;-67
2022/01/16 12:17:42;;;;;;;28.27;14.02;;;6.80;99.90;;;;;;4721486;30;20509;-64
2022/01/16 12:20:13;;;;;;;32.25;14.00;;;6.80;99.90;;;;;;4743909;30;20087;-63
2022/01/16 12:22:53;;;;;;;30.48;13.13;;;6.80;99.90;;;;;;4723454;30;20110;-64
2022/01/16 12:25:39;;;;;;;27.65;12.77;;;6.80;99.90;;;;;;4736841;30;20048;-64
2022/01/16 12:28:06;;;;;;;26.52;12.40;;;6.80;99.90;;;;;;4741501;30;20160;-64
2022/01/16 12:30:59;;;;;;;27.33;10.80;;;6.80;99.90;;;;;;4756226;30;20073;-65
2022/01/16 12:33:29;;;;;;;27.42;10.98;;;6.80;99.90;;;;;;4784550;29;20109;-64
2022/01/16 12:35:55;;;;;;;25.20;10.18;;;6.80;99.90;;;;;;4831336;29;20063;-64
2022/01/16 12:38:27;;;;;;;19.45;10.75;;;6.80;99.90;;;;;;4847264;29;20058;-64
2022/01/16 12:40:59;;;;;;;17.70;9.23;;;6.80;99.90;;;;;;4839758;29;20102;-64
2022/01/16 12:43:31;;;;;;;29.50;10.18;;;6.90;99.90;;;;;;4842840;29;20057;-65
2022/01/16 12:45:57;;;;;;;19.75;8.90;;;6.90;99.90;;;;;;4855544;29;20049;-64
2022/01/16 12:48:23;;;;;;;21.73;9.65;;;6.90;99.90;;;;;;4831095;29;20371;-64
2022/01/16 12:50:51;;;;;;;21.35;8.98;;;6.90;99.90;;;;;;4846206;29;20065;-64
2022/01/16 12:53:51;;;;;;;16.83;9.35;;;6.90;99.90;;;;;;4842247;29;20054;-64
2022/01/16 12:56:35;;;;;;;28.65;11.73;;;6.90;99.90;;;;;;4858172;29;20088;-64
2022/01/16 12:59:11;;;;;;;20.35;8.70;;;6.90;99.90;;;;;;4847232;29;20498;-64
2022/01/16 13:01:45;;;;;;;20.23;8.97;;;6.90;99.90;;;;;;4844589;29;20042;-64
2022/01/16 13:04:31;;;;;;;21.15;8.55;;;6.90;99.90;;;;;;4848681;29;20065;-64
2022/01/16 13:07:03;;;;;;;20.50;8.70;;;6.90;99.90;;;;;;4836390;29;20089;-64
2022/01/16 13:09:29;;;;;;;20.70;8.23;;;6.90;99.90;;;;;;4861543;29;20046;-64
2022/01/16 13:12:01;;;;;;;19.35;8.68;;;6.90;99.90;;;;;;4832676;29;20046;-63
2022/01/16 13:14:32;;;;;;;26.30;8.80;;;6.90;99.90;;;;;;4845728;29;20110;-64
2022/01/16 13:17:00;;;;;;;18.95;8.75;;;6.90;99.90;;;;;;4845457;29;20431;-66
2022/01/16 13:19:38;;;;;;;17.08;8.25;;;6.90;99.90;;;;;;4843607;29;20054;-64
2022/01/16 13:22:11;;;;;;;18.45;8.77;;;6.90;99.90;;;;;;4845970;29;20079;-64
2022/01/16 13:24:47;;;;;;;19.52;8.73;;;6.90;99.90;;;;;;4842002;29;20066;-64